createdAt,value
2019-06-15T00:02:18.191Z,96375.06
2019-06-15T00:07:14.039Z,96364.09
2019-06-15T00:12:09.890Z,96347.72
2019-06-15T00:17:05.785Z,96353.23
2019-06-15T00:22:03.985Z,96327.28
2019-06-15T00:26:59.841Z,96325.92
2019-06-15T00:31:55.705Z,96295.83
2019-06-15T00:36:51.554Z,96278.47
2019-06-15T00:41:47.379Z,96272.02
2019-06-15T00:46:43.214Z,96263.52
2019-06-15T00:51:39.061Z,96276.92
2019-06-15T00:56:35.707Z,96277.80
2019-06-15T01:01:31.693Z,96288.48
2019-06-15T01:06:28.012Z,96289.52
2019-06-15T01:11:23.745Z,96289.45
2019-06-15T01:16:19.515Z,96294.69
2019-06-15T01:26:17.950Z,96292.31
2019-06-15T01:31:13.692Z,96285.78
2019-06-15T01:36:09.513Z,96294.34
2019-06-15T01:41:05.304Z,96314.62
2019-06-15T01:46:01.100Z,96305.00
2019-06-15T01:50:56.883Z,96324.31
2019-06-15T01:55:54.056Z,96339.16
2019-06-15T02:00:49.925Z,96357.50
2019-06-15T02:05:45.752Z,96374.63
2019-06-15T02:10:41.489Z,96399.77
2019-06-15T02:15:37.364Z,96420.55
2019-06-15T02:20:33.153Z,96428.97
2019-06-15T02:25:36.284Z,96437.03
2019-06-15T02:30:30.964Z,96458.41
2019-06-15T02:35:27.050Z,96455.50
2019-06-15T02:40:22.809Z,96470.25
2019-06-15T02:45:19.468Z,96504.20
2019-06-15T02:50:15.537Z,96527.34
2019-06-15T02:55:11.731Z,96579.69
2019-06-15T03:00:08.770Z,96591.08
2019-06-15T03:05:04.723Z,96599.36
2019-06-15T03:10:01.020Z,96616.45
2019-06-15T03:14:57.619Z,96638.30
2019-06-15T03:19:53.423Z,96671.63
2019-06-15T03:24:49.216Z,96701.02
2019-06-15T03:29:45.037Z,96731.06
2019-06-15T03:34:40.806Z,96728.59
2019-06-15T03:39:36.543Z,96735.73
2019-06-15T03:44:32.572Z,96744.03
2019-06-15T03:49:29.151Z,96743.21
2019-06-15T03:54:25.106Z,96768.48
2019-06-15T03:59:21.024Z,96775.27
2019-06-15T04:04:16.857Z,96776.78
2019-06-15T04:09:12.873Z,96795.54
2019-06-15T04:14:09.019Z,96800.02
2019-06-15T04:19:05.028Z,96803.68
2019-06-15T04:24:00.938Z,96808.47
2019-06-15T04:28:56.738Z,96805.02
2019-06-15T04:33:52.794Z,96815.11
2019-06-15T04:40:02.573Z,96812.27
2019-06-15T04:45:10.164Z,96816.44
2019-06-15T04:50:15.356Z,96812.23
2019-06-15T04:55:55.262Z,96812.30
2019-06-15T05:01:21.317Z,96815.43
2019-06-15T05:07:51.317Z,96817.27
2019-06-15T05:12:47.366Z,96830.72
2019-06-15T05:17:46.189Z,96838.35
2019-06-15T05:23:39.282Z,96842.21
2019-06-15T05:28:33.200Z,96845.94
2019-06-15T05:33:29.673Z,96852.81
2019-06-15T05:38:25.930Z,96843.33
2019-06-15T05:43:22.050Z,96851.63
2019-06-15T05:48:18.031Z,96869.45
2019-06-15T05:53:13.925Z,96873.47
2019-06-15T05:58:10.869Z,96869.75
2019-06-15T06:03:06.905Z,96882.46
2019-06-15T06:08:05.645Z,96882.72
2019-06-15T06:13:01.756Z,96880.12
2019-06-15T06:17:57.982Z,96881.53
2019-06-15T06:22:53.959Z,96897.59
2019-06-15T06:27:49.943Z,96891.16
2019-06-15T06:32:45.953Z,96894.75
2019-06-15T06:37:41.998Z,96898.76
2019-06-15T06:42:38.063Z,96914.62
2019-06-15T06:47:33.974Z,96911.28
2019-06-15T06:52:32.005Z,96914.73
2019-06-15T06:57:28.014Z,96920.83
2019-06-15T07:02:26.112Z,96921.89
2019-06-15T07:07:22.697Z,96941.78
2019-06-15T07:12:18.978Z,96942.95
2019-06-15T07:17:16.247Z,96946.45
2019-06-15T07:22:12.320Z,96961.69
2019-06-15T07:27:08.414Z,96953.61
2019-06-15T07:32:04.750Z,96952.70
2019-06-15T07:37:03.637Z,96962.13
2019-06-15T07:41:59.565Z,96961.64
2019-06-15T07:46:58.375Z,96966.97
2019-06-15T07:51:54.248Z,96963.59
2019-06-15T07:56:50.306Z,96973.56
2019-06-15T08:01:46.404Z,96984.84
2019-06-15T08:06:42.407Z,96988.69
2019-06-15T08:11:39.745Z,96992.22
2019-06-15T08:16:35.770Z,97001.18
2019-06-15T08:21:31.924Z,97005.30
2019-06-15T08:26:28.010Z,97011.39
2019-06-15T08:31:24.075Z,97018.88
2019-06-15T08:36:22.232Z,97015.75
2019-06-15T08:41:18.276Z,97021.77
2019-06-15T08:46:14.287Z,97031.99
2019-06-15T08:51:10.382Z,97033.52
2019-06-15T08:56:06.992Z,97037.72
2019-06-15T09:01:03.045Z,97041.22
2019-06-15T09:05:59.245Z,97046.59
2019-06-15T09:10:55.658Z,97054.81
2019-06-15T09:15:54.671Z,97046.47
2019-06-15T09:20:51.498Z,97043.03
2019-06-15T09:25:47.975Z,97047.83
2019-06-15T09:30:44.258Z,97041.20
2019-06-15T09:35:40.359Z,97051.37
2019-06-15T09:40:36.387Z,97049.92
2019-06-15T09:46:06.212Z,97046.16
2019-06-15T10:09:00.718Z,97054.78
2019-06-15T10:14:05.680Z,97053.84
2019-06-15T10:19:04.589Z,97041.98
2019-06-15T10:40:55.624Z,97036.18
2019-06-15T10:50:56.723Z,97028.82
2019-06-15T10:55:54.686Z,97032.30
2019-06-15T11:00:51.016Z,97025.75
2019-06-15T11:05:47.007Z,97022.59
2019-06-15T11:11:08.369Z,97032.70
2019-06-15T11:16:07.218Z,97026.94
2019-06-15T11:21:03.981Z,97033.03
2019-06-15T11:38:04.761Z,97030.09
2019-06-15T11:42:39.565Z,97030.03
2019-06-15T11:47:35.495Z,97024.52
2019-06-15T11:52:31.407Z,97025.01
2019-06-15T11:57:27.298Z,97019.98
2019-06-15T12:02:23.134Z,97009.62
2019-06-15T12:07:19.139Z,97017.20
2019-06-15T12:12:15.132Z,97005.23
2019-06-15T12:17:11.045Z,97002.45
2019-06-15T12:22:06.937Z,97000.05
2019-06-15T12:27:02.696Z,97000.63
2019-06-15T12:31:58.754Z,96993.31
2019-06-15T12:36:54.665Z,96993.85
2019-06-15T12:41:50.555Z,96991.70
2019-06-15T12:46:46.468Z,96992.75
2019-06-15T12:51:42.255Z,96989.41
2019-06-15T12:56:38.022Z,96984.91
2019-06-15T13:01:33.950Z,96977.94
2019-06-15T13:06:29.911Z,96975.71
2019-06-15T13:11:26.481Z,96974.73
2019-06-15T13:16:22.579Z,96963.73
2019-06-15T13:44:45.066Z,96940.00
2019-06-15T13:49:46.364Z,96930.17
2019-06-15T13:54:43.051Z,96919.86
2019-06-15T13:59:38.858Z,96928.01
2019-06-15T14:04:37.277Z,96913.56
2019-06-15T14:09:33.005Z,96912.53
2019-06-15T14:14:28.918Z,96907.17
2019-06-15T14:19:24.731Z,96903.12
2019-06-15T14:24:20.512Z,96896.44
2019-06-15T14:29:17.526Z,96902.30
2019-06-15T14:34:13.649Z,96900.79
2019-06-15T14:39:09.747Z,96892.20
2019-06-15T14:44:05.812Z,96889.02
2019-06-15T14:49:01.569Z,96894.47
2019-06-15T14:53:59.040Z,96885.40
2019-06-15T14:58:56.327Z,96884.14
2019-06-15T15:03:52.250Z,96873.86
2019-06-15T15:08:48.226Z,96873.64
2019-06-15T15:13:46.959Z,96855.81
2019-06-15T15:18:41.758Z,96856.92
2019-06-15T15:23:37.703Z,96852.29
2019-06-15T15:28:33.565Z,96842.16
2019-06-15T15:33:29.386Z,96829.41
2019-06-15T15:38:25.182Z,96830.22
2019-06-15T15:43:20.994Z,96826.39
2019-06-15T15:48:21.074Z,96823.09
2019-06-15T15:53:18.908Z,96820.10
2019-06-15T15:58:17.900Z,96816.55
2019-06-15T16:03:15.972Z,96812.88
2019-06-15T16:08:12.251Z,96816.91
2019-06-15T16:13:08.159Z,96813.87
2019-06-15T16:18:06.826Z,96820.54
2019-06-15T16:23:03.282Z,96823.34
2019-06-15T16:27:59.330Z,96810.51
2019-06-15T16:33:01.292Z,96814.95
2019-06-15T16:37:53.136Z,96814.06
2019-06-15T16:42:49.517Z,96809.31
2019-06-15T16:47:46.733Z,96814.29
2019-06-15T16:52:43.122Z,96820.66
2019-06-15T16:57:38.985Z,96822.13
2019-06-15T17:02:36.843Z,96824.38
2019-06-15T17:07:32.321Z,96830.17
2019-06-15T17:12:28.083Z,96831.11
2019-06-15T17:17:26.432Z,96839.76
2019-06-15T17:22:21.641Z,96830.60
2019-06-15T17:27:17.662Z,96826.62
2019-06-15T17:32:13.610Z,96815.31
2019-06-15T17:37:09.479Z,96827.62
2019-06-15T17:42:07.053Z,96825.98
2019-06-15T17:47:03.150Z,96822.99
2019-06-15T17:51:59.000Z,96818.42
2019-06-15T17:56:56.816Z,96824.59
2019-06-15T18:01:52.508Z,96816.40
2019-06-15T18:06:48.491Z,96809.07
2019-06-15T18:11:46.510Z,96815.42
2019-06-15T18:16:42.326Z,96819.43
2019-06-15T18:21:41.056Z,96820.92
2019-06-15T18:26:36.494Z,96807.45
2019-06-15T18:31:36.412Z,96790.14
2019-06-15T18:36:32.830Z,96779.35
2019-06-15T18:41:29.064Z,96785.87
2019-06-15T18:46:28.183Z,96804.88
2019-06-15T18:51:24.271Z,96830.41
